This is the latest recevied weather packets stored in our database for station/object N9ALD. If no packets are shown the sender has not sent any weather packets the latest 10 day(s).
| Time | Temp. | Humidity | Pressure | Rain* | Wind** | Luminosity | Snow |
|---|---|---|---|---|---|---|---|
| 1777223257 | 18.89° C | 63% | 1014.1 hPa | 0 mm | - | 725 W/m² | - |
| 1777222955 | 18.89° C | 64% | 1014.1 hPa | 0 mm | - | 723 W/m² | - |
| 1777222652 | 18.33° C | 64% | 1014 hPa | 0 mm | - | 719 W/m² | - |
| 1777222349 | 18.33° C | 64% | 1014 hPa | 0 mm | - | 715 W/m² | - |
| 1777222047 | 18.33° C | 64% | 1014.1 hPa | 0 mm | - | 709 W/m² | - |
| 1777221743 | 17.78° C | 69% | 1014.1 hPa | 0 mm | - | 708 W/m² | - |
| 1777221439 | 17.78° C | 66% | 1014 hPa | 0 mm | - | 705 W/m² | - |
| 1777221138 | 17.22° C | 68% | 1014.3 hPa | 0 mm | - | 702 W/m² | - |
| 1777220833 | 16.67° C | 69% | 1014.3 hPa | 0 mm | - | 693 W/m² | - |
| 1777220529 | 16.67° C | 68% | 1014.2 hPa | 0 mm | - | 690 W/m² | - |
| 1777220224 | 16.11° C | 71% | 1014.2 hPa | 0 mm | - | 688 W/m² | - |
| 1777219920 | 16.11° C | 73% | 1014.2 hPa | 0 mm | - | 678 W/m² | - |
| 1777219617 | 16.11° C | 72% | 1014.2 hPa | 0 mm | - | 673 W/m² | - |
| 1777219314 | 15.56° C | 72% | 1014.2 hPa | 0 mm | - | 669 W/m² | - |
| 1777219010 | 15.56° C | 73% | 1014 hPa | 0 mm | - | 656 W/m² | - |
| 1777218705 | 15.56° C | 73% | 1014.1 hPa | 0 mm | - | 640 W/m² | - |
| 1777218401 | 16.11° C | 68% | 1014.1 hPa | 0 mm | - | 649 W/m² | - |
| 1777218098 | 16.67° C | 69% | 1014.3 hPa | 0 mm | - | 635 W/m² | - |
| 1777217793 | 16.67° C | 70% | 1014.3 hPa | 0 mm | - | 626 W/m² | - |
| 1777217490 | 16.11° C | 74% | 1014.2 hPa | 0 mm | - | 616 W/m² | - |
| 1777217186 | 16.11° C | 72% | 1014.2 hPa | 0 mm | - | 612 W/m² | - |
| 1777216883 | 15.56° C | 73% | 1014.3 hPa | 0 mm | - | 592 W/m² | - |
| 1777216579 | 15° C | 75% | 1014.4 hPa | 0 mm | - | 591 W/m² | - |
| 1777216275 | 14.44° C | 75% | 1014.3 hPa | 0 mm | - | 582 W/m² | - |
| 1777215974 | 13.89° C | 79% | 1014.3 hPa | 0 mm | - | 615 W/m² | - |
* Rain latest hour (hover to see other rain measurements)
** Current wind speed in m/s (hover to see current wind gust speed)